createdAt,value
2022-09-22T00:01:37.524Z,59.80
2022-09-22T00:04:08.305Z,59.90
2022-09-22T00:06:38.807Z,59.80
2022-09-22T00:09:09.512Z,59.80
2022-09-22T00:11:40.340Z,59.90
2022-09-22T00:14:12.838Z,59.90
2022-09-22T00:16:43.292Z,60.10
2022-09-22T00:19:16.778Z,60.10
2022-09-22T00:21:46.453Z,60.40
2022-09-22T00:24:15.438Z,59.90
2022-09-22T00:26:43.845Z,59.60
2022-09-22T00:29:13.802Z,59.80
2022-09-22T00:31:43.052Z,60.10
2022-09-22T00:34:16.355Z,60.30
2022-09-22T00:36:44.431Z,60.80
2022-09-22T00:39:12.852Z,60.50
2022-09-22T00:41:44.788Z,60.60
2022-09-22T00:44:36.005Z,60.70
2022-09-22T00:47:10.398Z,61.80
2022-09-22T00:49:44.981Z,61.10
2022-09-22T00:52:17.518Z,61.30
2022-09-22T00:54:45.703Z,61.30
2022-09-22T00:57:18.124Z,61.10
2022-09-22T00:59:51.368Z,61.30
2022-09-22T01:02:21.070Z,61.40
2022-09-22T01:04:52.058Z,61.20
2022-09-22T01:07:21.125Z,61.40
2022-09-22T01:09:49.204Z,61.20
2022-09-22T01:12:17.554Z,61.30
2022-09-22T01:15:18.029Z,61.30
2022-09-22T01:17:56.690Z,62.00
2022-09-22T01:20:56.541Z,61.50
2022-09-22T01:23:47.235Z,62.20
2022-09-22T01:26:50.588Z,61.90
2022-09-22T01:30:00.119Z,62.20
2022-09-22T01:32:33.509Z,62.10
2022-09-22T01:35:08.427Z,61.50
2022-09-22T01:37:44.627Z,61.70
2022-09-22T01:40:18.825Z,62.00
2022-09-22T01:42:50.626Z,62.00
2022-09-22T01:45:23.662Z,61.80
2022-09-22T01:47:57.633Z,61.80
2022-09-22T01:50:30.065Z,62.20
2022-09-22T01:53:01.872Z,62.10
2022-09-22T01:55:33.939Z,62.20
2022-09-22T01:58:06.010Z,62.00
2022-09-22T02:00:35.245Z,61.90
2022-09-22T02:03:09.958Z,61.80
2022-09-22T02:05:42.945Z,62.30
2022-09-22T02:08:15.121Z,62.20
2022-09-22T02:10:45.474Z,62.30
2022-09-22T02:13:13.639Z,62.30
2022-09-22T02:15:59.332Z,62.20
2022-09-22T02:18:33.059Z,62.30
2022-09-22T02:21:02.251Z,62.50
2022-09-22T02:23:32.337Z,62.30
2022-09-22T02:26:02.798Z,62.50
2022-09-22T02:28:32.891Z,62.50
2022-09-22T02:31:19.509Z,62.50
2022-09-22T02:33:51.898Z,62.70
2022-09-22T02:36:31.814Z,63.00
2022-09-22T02:39:07.380Z,63.10
2022-09-22T02:41:48.501Z,62.70
2022-09-22T02:44:22.622Z,62.90
2022-09-22T02:47:00.941Z,63.00
2022-09-22T02:49:31.213Z,63.00
2022-09-22T02:52:00.690Z,62.70
2022-09-22T02:54:28.809Z,62.80
2022-09-22T02:56:57.083Z,62.80
2022-09-22T02:59:25.182Z,62.70
2022-09-22T03:01:53.297Z,62.60
2022-09-22T03:04:21.547Z,62.60
2022-09-22T03:06:51.141Z,62.60
2022-09-22T03:09:19.228Z,62.90
2022-09-22T03:11:47.353Z,62.70
2022-09-22T03:14:15.442Z,62.80
2022-09-22T03:16:43.515Z,62.70
2022-09-22T03:19:11.978Z,62.70
2022-09-22T03:21:40.113Z,62.70
2022-09-22T03:24:09.699Z,62.70
2022-09-22T03:26:37.810Z,62.90
2022-09-22T03:29:06.253Z,62.80
2022-09-22T03:31:34.364Z,62.90
2022-09-22T03:34:02.647Z,62.90
2022-09-22T03:36:30.804Z,63.00
2022-09-22T03:38:59.405Z,63.10
2022-09-22T03:41:28.890Z,63.10
2022-09-22T03:43:58.561Z,63.30
2022-09-22T03:46:26.973Z,63.30
2022-09-22T03:48:55.220Z,63.70
2022-09-22T03:51:23.392Z,63.70
2022-09-22T03:53:51.533Z,63.80
2022-09-22T03:56:19.650Z,63.60
2022-09-22T03:58:50.110Z,63.60
2022-09-22T04:01:18.263Z,63.80
2022-09-22T04:03:46.749Z,63.70
2022-09-22T04:06:15.117Z,63.80
2022-09-22T04:08:43.318Z,63.80
2022-09-22T04:11:11.594Z,63.90
2022-09-22T04:13:44.048Z,63.90
2022-09-22T04:16:15.803Z,63.80
2022-09-22T04:18:44.006Z,63.90
2022-09-22T04:21:12.155Z,63.80
2022-09-22T04:23:40.666Z,63.90
2022-09-22T04:26:08.832Z,64.00
2022-09-22T04:28:37.068Z,63.80
2022-09-22T04:31:05.333Z,63.90
2022-09-22T04:33:34.939Z,64.00
2022-09-22T04:36:03.407Z,64.10
2022-09-22T04:38:31.829Z,64.10
2022-09-22T04:41:01.381Z,63.90
2022-09-22T04:43:29.618Z,64.00
2022-09-22T04:45:57.900Z,64.20
2022-09-22T04:48:26.119Z,64.50
2022-09-22T04:50:55.772Z,64.80
2022-09-22T04:53:24.050Z,65.00
2022-09-22T04:55:52.221Z,65.00
2022-09-22T04:58:20.543Z,65.00
2022-09-22T05:00:48.639Z,65.00
2022-09-22T05:03:21.878Z,64.90
2022-09-22T05:05:50.425Z,64.90
2022-09-22T05:08:19.908Z,65.00
2022-09-22T05:10:48.114Z,65.20
2022-09-22T05:13:16.300Z,64.90
2022-09-22T05:15:44.557Z,64.90
2022-09-22T05:18:12.775Z,65.00
2022-09-22T05:20:41.068Z,65.00
2022-09-22T05:23:09.261Z,65.00
2022-09-22T05:25:39.195Z,64.90
2022-09-22T05:28:07.342Z,65.10
2022-09-22T05:30:35.437Z,65.10
2022-09-22T05:33:03.550Z,65.20
2022-09-22T05:35:36.491Z,65.30
2022-09-22T05:38:05.395Z,65.20
2022-09-22T05:40:33.560Z,65.30
2022-09-22T05:43:03.107Z,65.30
2022-09-22T05:45:31.307Z,65.50
2022-09-22T05:47:59.549Z,65.50
2022-09-22T05:50:28.109Z,65.50
2022-09-22T05:53:05.062Z,65.80
2022-09-22T05:55:33.556Z,66.50
2022-09-22T05:58:03.731Z,66.00
2022-09-22T06:00:32.792Z,66.50
2022-09-22T06:03:01.084Z,66.50
2022-09-22T06:05:29.274Z,66.50
2022-09-22T06:08:00.834Z,66.50
2022-09-22T06:10:29.090Z,66.80
2022-09-22T06:13:00.442Z,66.90
2022-09-22T06:15:31.214Z,67.30
2022-09-22T06:18:02.259Z,67.20
2022-09-22T06:20:30.400Z,67.20
2022-09-22T06:23:00.115Z,67.20
2022-09-22T06:25:29.669Z,67.20
2022-09-22T06:28:02.284Z,67.50
2022-09-22T06:30:31.952Z,67.90
2022-09-22T06:33:00.473Z,68.00
2022-09-22T06:35:31.158Z,68.00
2022-09-22T06:37:59.748Z,68.30
2022-09-22T06:40:28.510Z,68.40
2022-09-22T06:43:00.418Z,68.50
2022-09-22T06:45:31.893Z,68.80
2022-09-22T06:48:05.223Z,68.50
2022-09-22T06:50:35.715Z,68.70
2022-09-22T06:53:07.134Z,68.30
2022-09-22T06:55:36.056Z,68.30
2022-09-22T06:58:04.235Z,68.20
2022-09-22T07:00:33.689Z,68.20
2022-09-22T07:03:10.128Z,68.10
2022-09-22T07:05:38.268Z,68.30
2022-09-22T07:08:09.029Z,67.70
2022-09-22T07:10:38.206Z,67.50
2022-09-22T07:13:06.840Z,67.20
2022-09-22T07:15:36.251Z,67.00
2022-09-22T07:18:04.410Z,66.90
2022-09-22T07:20:35.607Z,66.60
2022-09-22T07:23:03.814Z,66.20
2022-09-22T07:25:36.019Z,65.80
2022-09-22T07:28:06.246Z,65.60
2022-09-22T07:30:38.191Z,65.30
2022-09-22T07:33:06.462Z,65.00
2022-09-22T07:35:38.166Z,64.70
2022-09-22T07:38:06.281Z,64.20
2022-09-22T07:40:34.471Z,63.70
2022-09-22T07:43:02.651Z,63.10
2022-09-22T07:45:31.990Z,62.50
2022-09-22T07:48:17.524Z,61.90
2022-09-22T07:50:55.449Z,61.40
2022-09-22T07:53:23.705Z,60.40
2022-09-22T07:55:51.987Z,60.20
2022-09-22T07:58:21.254Z,59.70
2022-09-22T08:00:50.901Z,59.20
2022-09-22T08:03:19.133Z,58.80
2022-09-22T08:05:52.286Z,58.30
2022-09-22T08:08:20.802Z,57.70
2022-09-22T08:10:49.032Z,57.40
2022-09-22T08:13:17.251Z,56.90
2022-09-22T08:15:45.569Z,56.30
2022-09-22T08:18:14.353Z,55.50
2022-09-22T08:20:45.018Z,55.10
2022-09-22T08:23:14.738Z,54.30
2022-09-22T08:25:43.170Z,53.40
2022-09-22T08:28:12.518Z,53.20
2022-09-22T08:30:40.769Z,52.70
2022-09-22T08:33:08.855Z,52.20
2022-09-22T08:35:37.578Z,51.40
2022-09-22T08:38:10.570Z,50.60
2022-09-22T08:40:48.078Z,50.40
2022-09-22T08:43:16.753Z,49.60
2022-09-22T08:45:46.412Z,49.40
2022-09-22T08:48:39.039Z,48.60
2022-09-22T08:51:30.538Z,47.90
2022-09-22T08:54:03.324Z,47.00
2022-09-22T08:56:34.881Z,47.80
2022-09-22T08:59:09.258Z,49.90
2022-09-22T09:01:53.103Z,47.50
2022-09-22T09:04:45.805Z,46.40
2022-09-22T09:07:23.975Z,45.90
2022-09-22T09:10:04.533Z,45.70
2022-09-22T09:12:45.724Z,44.40
2022-09-22T09:15:29.771Z,43.70
2022-09-22T09:18:02.803Z,42.60
2022-09-22T09:20:35.233Z,42.80
2022-09-22T09:23:07.537Z,46.40
2022-09-22T09:25:39.619Z,43.40
2022-09-22T09:28:15.057Z,42.40
2022-09-22T09:30:46.586Z,41.70
2022-09-22T09:33:30.311Z,41.60
2022-09-22T09:36:01.705Z,40.10
2022-09-22T09:38:33.228Z,40.50
2022-09-22T09:41:10.926Z,40.00
2022-09-22T09:43:42.725Z,39.00
2022-09-22T09:46:22.212Z,38.90
2022-09-22T09:49:05.610Z,37.50
2022-09-22T09:51:39.655Z,37.00
2022-09-22T09:54:13.091Z,37.50
2022-09-22T09:57:08.397Z,37.50
2022-09-22T09:59:56.786Z,36.20
2022-09-22T10:02:29.124Z,36.60
2022-09-22T10:04:59.907Z,36.30
2022-09-22T10:10:32.762Z,35.50
2022-09-22T10:13:23.402Z,34.70
2022-09-22T10:16:05.921Z,34.70
2022-09-22T10:18:40.157Z,34.30
2022-09-22T10:21:16.292Z,34.20
2022-09-22T10:23:47.756Z,33.80
2022-09-22T10:26:19.513Z,34.10
2022-09-22T10:29:09.346Z,33.90
2022-09-22T10:31:39.424Z,33.30
2022-09-22T10:34:25.407Z,33.20
2022-09-22T10:36:53.883Z,33.20
2022-09-22T10:39:25.562Z,33.70
2022-09-22T10:41:53.895Z,33.40
2022-09-22T10:47:31.120Z,32.90
2022-09-22T10:50:30.567Z,31.20
2022-09-22T10:53:08.400Z,31.30
2022-09-22T10:55:38.490Z,30.90
2022-09-22T10:58:27.875Z,31.60
2022-09-22T11:01:09.344Z,30.50
2022-09-22T11:04:01.117Z,30.60
2022-09-22T11:07:00.338Z,30.50
2022-09-22T11:09:53.086Z,30.30
2022-09-22T11:12:33.015Z,30.70
2022-09-22T11:15:27.182Z,30.30
2022-09-22T11:18:14.919Z,30.10
2022-09-22T11:20:46.035Z,30.10
2022-09-22T11:23:41.996Z,29.80
2022-09-22T11:26:43.198Z,29.40
2022-09-22T11:29:47.440Z,29.60
2022-09-22T11:32:38.222Z,29.70
2022-09-22T11:35:41.880Z,29.50
2022-09-22T11:38:28.585Z,30.40
2022-09-22T11:41:25.905Z,29.80
2022-09-22T11:44:14.710Z,31.10
2022-09-22T11:46:57.676Z,30.20
2022-09-22T11:49:38.408Z,29.80
2022-09-22T11:52:19.804Z,30.00
2022-09-22T11:55:03.265Z,30.10
2022-09-22T11:57:36.488Z,30.20
2022-09-22T12:00:07.203Z,30.50
2022-09-22T12:02:40.473Z,31.30
2022-09-22T12:05:11.931Z,31.00
2022-09-22T12:07:45.921Z,31.20
2022-09-22T12:10:22.870Z,31.80
2022-09-22T12:12:53.128Z,32.30
2022-09-22T12:15:27.886Z,32.50
2022-09-22T12:18:02.865Z,32.70
2022-09-22T12:20:39.099Z,31.90
2022-09-22T12:23:37.118Z,31.70
2022-09-22T12:26:09.262Z,31.50
2022-09-22T12:28:42.374Z,31.50
2022-09-22T12:31:13.180Z,31.80
2022-09-22T12:33:48.473Z,33.40
2022-09-22T12:36:18.251Z,32.30
2022-09-22T12:38:46.651Z,32.50
2022-09-22T12:41:20.204Z,32.80
2022-09-22T12:43:48.914Z,33.00
2022-09-22T12:46:29.002Z,33.40
2022-09-22T12:48:57.143Z,33.70
2022-09-22T12:51:33.557Z,34.10
2022-09-22T12:54:38.933Z,34.30
2022-09-22T12:57:44.898Z,34.90
2022-09-22T13:00:22.965Z,34.80
2022-09-22T13:02:51.513Z,35.30
2022-09-22T13:05:36.947Z,35.50
2022-09-22T13:08:05.376Z,35.50
2022-09-22T13:10:50.655Z,35.80
2022-09-22T13:13:36.743Z,36.10
2022-09-22T13:16:27.140Z,35.70
2022-09-22T13:19:00.494Z,35.70
2022-09-22T13:21:30.526Z,35.70
2022-09-22T13:24:00.147Z,35.80
2022-09-22T13:26:30.713Z,35.50
2022-09-22T13:29:13.198Z,35.60
2022-09-22T13:31:43.994Z,35.40
2022-09-22T13:34:22.979Z,35.50
2022-09-22T13:36:53.297Z,35.30
2022-09-22T13:39:23.688Z,35.50
2022-09-22T13:41:54.248Z,35.70
2022-09-22T13:44:28.015Z,35.90
2022-09-22T13:46:58.162Z,36.00
2022-09-22T13:49:32.188Z,36.30
2022-09-22T13:52:05.338Z,35.80
2022-09-22T13:54:36.862Z,35.80
2022-09-22T13:57:08.982Z,35.20
2022-09-22T13:59:42.479Z,34.70
2022-09-22T14:02:12.929Z,34.10
2022-09-22T14:04:50.788Z,34.00
2022-09-22T14:07:20.421Z,32.80
2022-09-22T14:09:49.966Z,32.90
2022-09-22T14:12:18.842Z,32.50
2022-09-22T14:14:48.369Z,32.00
2022-09-22T14:17:20.845Z,31.60
2022-09-22T14:19:56.215Z,31.20
2022-09-22T14:22:26.511Z,30.30
2022-09-22T14:24:57.770Z,30.40
2022-09-22T14:27:29.652Z,29.80
2022-09-22T14:30:00.278Z,29.80
2022-09-22T14:32:35.220Z,29.70
2022-09-22T14:35:06.605Z,29.60
2022-09-22T14:37:39.145Z,29.40
2022-09-22T14:40:15.535Z,29.40
2022-09-22T14:42:43.875Z,29.20
2022-09-22T14:45:23.522Z,29.30
2022-09-22T14:48:19.350Z,28.90
2022-09-22T14:50:59.742Z,28.80
2022-09-22T14:53:31.413Z,29.00
2022-09-22T14:56:05.927Z,28.90
2022-09-22T14:58:40.462Z,28.90
2022-09-22T15:01:38.277Z,28.40
2022-09-22T15:04:10.987Z,27.80
2022-09-22T15:06:40.182Z,27.70
2022-09-22T15:09:14.586Z,27.70
2022-09-22T15:11:48.564Z,27.80
2022-09-22T15:14:41.891Z,27.30
2022-09-22T15:17:57.506Z,28.00
2022-09-22T15:20:29.129Z,28.10
2022-09-22T15:22:58.668Z,28.30
2022-09-22T15:25:26.750Z,28.20
2022-09-22T15:27:54.932Z,28.10
2022-09-22T15:30:25.505Z,28.00
2022-09-22T15:32:55.136Z,28.10
2022-09-22T15:35:24.887Z,28.00
2022-09-22T15:37:55.455Z,28.30
2022-09-22T15:40:24.528Z,28.60
2022-09-22T15:43:11.760Z,28.60
2022-09-22T15:45:47.749Z,28.60
2022-09-22T15:48:28.758Z,28.70
2022-09-22T15:50:57.777Z,28.70
2022-09-22T15:53:25.970Z,28.90
2022-09-22T15:55:55.474Z,28.80
2022-09-22T15:58:24.385Z,28.80
2022-09-22T16:00:53.657Z,28.70
2022-09-22T16:03:24.911Z,28.90
2022-09-22T16:05:57.227Z,28.80
2022-09-22T16:08:31.266Z,29.00
2022-09-22T16:11:05.733Z,29.20
2022-09-22T16:13:34.177Z,29.30
2022-09-22T16:16:03.093Z,29.30
2022-09-22T16:18:33.594Z,29.20
2022-09-22T16:21:05.886Z,29.10
2022-09-22T16:23:34.175Z,29.20
2022-09-22T16:26:02.363Z,29.60
2022-09-22T16:28:30.644Z,29.70
2022-09-22T16:31:03.150Z,29.80
2022-09-22T16:33:32.832Z,30.00
2022-09-22T16:36:00.949Z,30.20
2022-09-22T16:38:29.571Z,30.40
2022-09-22T16:41:05.146Z,30.70
2022-09-22T16:43:34.042Z,30.90
2022-09-22T16:46:19.677Z,31.00
2022-09-22T16:48:51.044Z,31.30
2022-09-22T16:51:19.353Z,31.50
2022-09-22T16:53:51.203Z,31.70
2022-09-22T16:56:19.911Z,31.90
2022-09-22T16:58:48.333Z,32.20
2022-09-22T17:01:19.799Z,33.20
2022-09-22T17:03:52.242Z,33.60
2022-09-22T17:06:23.085Z,34.10
2022-09-22T17:08:53.698Z,34.40
2022-09-22T17:11:23.375Z,34.50
2022-09-22T17:13:51.559Z,34.60
2022-09-22T17:16:27.640Z,34.70
2022-09-22T17:18:59.626Z,35.40
2022-09-22T17:21:31.225Z,35.30
2022-09-22T17:24:01.776Z,35.50
2022-09-22T17:26:31.693Z,35.80
2022-09-22T17:29:00.527Z,36.10
2022-09-22T17:31:31.251Z,36.30
2022-09-22T17:34:01.422Z,36.60
2022-09-22T17:36:30.790Z,37.10
2022-09-22T17:39:00.922Z,37.30
2022-09-22T17:41:31.407Z,37.70
2022-09-22T17:44:01.404Z,38.00
2022-09-22T17:46:31.417Z,38.40
2022-09-22T17:49:18.701Z,38.90
2022-09-22T17:52:05.939Z,39.40
2022-09-22T17:54:54.281Z,39.60
2022-09-22T17:57:24.877Z,39.90
2022-09-22T17:59:55.156Z,40.30
2022-09-22T18:02:24.828Z,40.70
2022-09-22T18:04:54.543Z,40.90
2022-09-22T18:07:25.206Z,41.20
2022-09-22T18:09:55.503Z,41.50
2022-09-22T18:12:25.507Z,41.90
2022-09-22T18:14:55.454Z,42.10
2022-09-22T18:17:25.975Z,42.30
2022-09-22T18:19:57.103Z,42.50
2022-09-22T18:22:27.098Z,42.80
2022-09-22T18:24:56.458Z,42.90
2022-09-22T18:27:27.071Z,43.10
2022-09-22T18:29:58.840Z,43.30
2022-09-22T18:32:27.704Z,43.50
2022-09-22T18:34:57.235Z,43.70
2022-09-22T18:37:26.946Z,43.90
2022-09-22T18:39:55.135Z,44.10
2022-09-22T18:42:26.333Z,44.10
2022-09-22T18:44:54.535Z,44.40
2022-09-22T18:47:24.249Z,44.40
2022-09-22T18:49:52.594Z,44.70
2022-09-22T18:52:24.679Z,44.70
2022-09-22T18:54:54.568Z,45.00
2022-09-22T18:57:24.652Z,45.20
2022-09-22T18:59:54.050Z,45.40
2022-09-22T19:02:23.026Z,45.60
2022-09-22T19:04:52.355Z,45.80
2022-09-22T19:07:43.317Z,46.00
2022-09-22T19:10:14.250Z,46.30
2022-09-22T19:12:42.703Z,46.30
2022-09-22T19:15:16.574Z,46.50
2022-09-22T19:17:46.139Z,46.70
2022-09-22T19:20:15.707Z,46.90
2022-09-22T19:22:45.865Z,47.00
2022-09-22T19:25:14.068Z,47.40
2022-09-22T19:27:42.199Z,47.40
2022-09-22T19:30:11.609Z,47.60
2022-09-22T19:32:41.191Z,47.80
2022-09-22T19:35:10.435Z,47.90
2022-09-22T19:37:41.277Z,48.10
2022-09-22T19:40:13.252Z,48.20
2022-09-22T19:42:41.534Z,48.50
2022-09-22T19:45:10.380Z,48.40
2022-09-22T19:47:39.551Z,48.60
2022-09-22T19:50:09.581Z,48.80
2022-09-22T19:52:38.563Z,49.00
2022-09-22T19:55:08.060Z,49.00
2022-09-22T19:57:40.322Z,49.30
2022-09-22T20:00:10.014Z,49.50
2022-09-22T20:02:38.303Z,49.50
2022-09-22T20:05:11.923Z,49.50
2022-09-22T20:07:41.839Z,49.70
2022-09-22T20:10:10.309Z,49.80
2022-09-22T20:12:39.815Z,49.90
2022-09-22T20:15:08.739Z,50.00
2022-09-22T20:17:36.885Z,50.00
2022-09-22T20:20:05.483Z,50.00
2022-09-22T20:22:35.848Z,50.10
2022-09-22T20:25:05.168Z,50.20
2022-09-22T20:27:35.292Z,50.40
2022-09-22T20:30:06.626Z,50.60
2022-09-22T20:32:35.421Z,50.90
2022-09-22T20:35:03.645Z,50.70
2022-09-22T20:37:32.348Z,51.00
2022-09-22T20:40:00.377Z,51.00
2022-09-22T20:42:28.461Z,51.20
2022-09-22T20:44:56.479Z,51.40
2022-09-22T20:47:27.580Z,51.50
2022-09-22T20:49:55.699Z,51.80
2022-09-22T20:52:23.892Z,51.70
2022-09-22T20:54:52.288Z,51.90
2022-09-22T20:57:20.631Z,52.00
2022-09-22T20:59:48.738Z,52.00
2022-09-22T21:02:16.941Z,52.10
2022-09-22T21:04:46.343Z,52.20
2022-09-22T21:07:14.588Z,52.40
2022-09-22T21:10:00.156Z,52.30
2022-09-22T21:12:31.274Z,52.40
2022-09-22T21:14:59.990Z,52.30
2022-09-22T21:17:29.751Z,52.50
2022-09-22T21:19:59.374Z,52.50
2022-09-22T21:22:28.270Z,52.70
2022-09-22T21:24:56.540Z,52.70
2022-09-22T21:27:25.496Z,52.80
2022-09-22T21:29:53.699Z,53.00
2022-09-22T21:32:22.059Z,53.10
2022-09-22T21:34:50.101Z,53.30
2022-09-22T21:37:19.502Z,53.50
2022-09-22T21:39:47.518Z,53.70
2022-09-22T21:42:15.773Z,53.60
2022-09-22T21:44:46.607Z,53.80
2022-09-22T21:47:14.719Z,53.80
2022-09-22T21:49:42.820Z,53.80
2022-09-22T21:52:10.931Z,53.90
2022-09-22T21:54:40.821Z,54.00
2022-09-22T21:57:08.962Z,54.40
2022-09-22T21:59:37.007Z,54.30
2022-09-22T22:02:05.124Z,54.40
2022-09-22T22:04:34.195Z,54.40
2022-09-22T22:07:02.364Z,54.40
2022-09-22T22:09:30.524Z,54.40
2022-09-22T22:12:00.103Z,54.60
2022-09-22T22:14:33.101Z,54.80
2022-09-22T22:17:02.196Z,54.80
2022-09-22T22:19:31.042Z,54.60
2022-09-22T22:21:59.340Z,54.80
2022-09-22T22:24:35.279Z,54.80
2022-09-22T22:27:07.104Z,55.00
2022-09-22T22:29:36.423Z,55.40
2022-09-22T22:32:06.022Z,55.30
2022-09-22T22:34:34.323Z,55.40
2022-09-22T22:37:03.955Z,55.40
2022-09-22T22:39:32.570Z,55.60
2022-09-22T22:42:00.827Z,55.70
2022-09-22T22:44:30.295Z,55.70
2022-09-22T22:46:58.475Z,55.80
2022-09-22T22:49:28.337Z,55.80
2022-09-22T22:51:56.422Z,55.90
2022-09-22T22:54:24.539Z,56.00
2022-09-22T22:56:52.899Z,56.00
2022-09-22T22:59:21.013Z,56.00
2022-09-22T23:01:50.654Z,56.10
2022-09-22T23:04:18.924Z,56.30
2022-09-22T23:06:48.486Z,56.30
2022-09-22T23:09:17.950Z,56.30
2022-09-22T23:11:47.745Z,56.50
2022-09-22T23:14:17.101Z,56.60
2022-09-22T23:16:46.821Z,56.50
2022-09-22T23:19:18.211Z,56.80
2022-09-22T23:21:46.823Z,57.00
2022-09-22T23:24:16.994Z,57.00
2022-09-22T23:26:45.669Z,57.10
2022-09-22T23:29:14.156Z,57.10
2022-09-22T23:31:42.286Z,57.20
2022-09-22T23:34:10.394Z,57.10
2022-09-22T23:36:40.750Z,57.10
2022-09-22T23:39:08.853Z,57.20
2022-09-22T23:41:37.982Z,57.10
2022-09-22T23:44:07.233Z,57.20
2022-09-22T23:46:36.295Z,57.20
2022-09-22T23:49:04.614Z,57.20
2022-09-22T23:51:32.667Z,57.20
2022-09-22T23:54:02.499Z,57.20
2022-09-22T23:56:30.803Z,57.40
2022-09-22T23:58:58.931Z,57.30
